createdAt,value
2018-03-30T00:00:45.940Z,5.23
2018-03-30T00:03:14.162Z,5.21
2018-03-30T00:05:42.470Z,5.16
2018-03-30T00:08:10.727Z,5.12
2018-03-30T00:10:44.580Z,5.11
2018-03-30T00:13:13.289Z,5.11
2018-03-30T00:15:41.600Z,5.07
2018-03-30T00:18:09.955Z,5.01
2018-03-30T00:20:40.104Z,4.97
2018-03-30T00:23:08.400Z,4.95
2018-03-30T00:25:36.659Z,4.92
2018-03-30T00:28:04.917Z,4.92
2018-03-30T00:30:33.418Z,4.84
2018-03-30T00:33:01.687Z,4.77
2018-03-30T00:35:30.027Z,4.76
2018-03-30T00:38:00.899Z,4.79
2018-03-30T00:40:29.185Z,4.79
2018-03-30T00:42:58.206Z,4.75
2018-03-30T00:45:26.686Z,4.71
2018-03-30T00:47:54.904Z,4.68
2018-03-30T00:50:23.399Z,4.68
2018-03-30T00:52:51.692Z,4.66
2018-03-30T00:55:19.950Z,4.60
2018-03-30T00:57:48.176Z,4.52
2018-03-30T01:00:16.410Z,4.52
2018-03-30T01:02:45.430Z,4.53
2018-03-30T01:05:13.670Z,4.53
2018-03-30T01:07:42.943Z,4.54
2018-03-30T01:10:11.228Z,4.53
2018-03-30T01:12:39.573Z,4.52
2018-03-30T01:15:09.733Z,4.45
2018-03-30T01:17:38.211Z,4.35
2018-03-30T01:20:07.207Z,4.27
2018-03-30T01:22:37.034Z,4.22
2018-03-30T01:25:05.535Z,4.17
2018-03-30T01:27:37.162Z,4.21
2018-03-30T01:30:05.788Z,4.24
2018-03-30T01:32:35.808Z,4.26
2018-03-30T01:35:04.144Z,4.25
2018-03-30T01:37:32.377Z,4.25
2018-03-30T01:40:00.610Z,4.24
2018-03-30T01:42:29.038Z,4.21
2018-03-30T01:44:57.376Z,4.16
2018-03-30T01:47:25.659Z,4.03
2018-03-30T01:49:54.740Z,3.92
2018-03-30T01:52:24.977Z,3.90
2018-03-30T01:54:57.368Z,3.91
2018-03-30T01:57:26.759Z,3.95
2018-03-30T01:59:55.069Z,3.97
2018-03-30T02:02:24.361Z,3.97
2018-03-30T02:04:52.726Z,3.92
2018-03-30T02:07:21.119Z,3.83
2018-03-30T02:09:52.165Z,3.76
2018-03-30T02:12:20.455Z,3.64
2018-03-30T02:14:48.830Z,3.54
2018-03-30T02:17:18.896Z,3.56
2018-03-30T02:19:47.232Z,3.61
2018-03-30T02:22:17.390Z,3.60
2018-03-30T02:24:47.451Z,3.52
2018-03-30T02:27:15.911Z,3.41
2018-03-30T02:29:44.935Z,3.33
2018-03-30T02:32:14.871Z,3.28
2018-03-30T02:34:44.017Z,3.25
2018-03-30T02:37:12.322Z,3.23
2018-03-30T02:39:40.619Z,3.29
2018-03-30T02:42:08.861Z,3.36
2018-03-30T02:44:37.982Z,3.42
2018-03-30T02:47:06.284Z,3.43
2018-03-30T02:49:34.577Z,3.44
2018-03-30T02:52:02.988Z,3.35
2018-03-30T02:54:32.884Z,3.27
2018-03-30T02:57:01.236Z,3.30
2018-03-30T02:59:29.521Z,3.35
2018-03-30T03:01:57.835Z,3.40
2018-03-30T03:04:26.115Z,3.42
2018-03-30T03:06:54.646Z,3.43
2018-03-30T03:09:23.042Z,3.42
2018-03-30T03:11:51.329Z,3.41
2018-03-30T03:14:19.796Z,3.37
2018-03-30T03:16:48.816Z,3.30
2018-03-30T03:19:17.879Z,3.24
2018-03-30T03:21:47.766Z,3.17
2018-03-30T03:24:16.065Z,3.09
2018-03-30T03:26:44.454Z,3.07
2018-03-30T03:29:12.818Z,3.07
2018-03-30T03:31:41.128Z,3.09
2018-03-30T03:34:12.254Z,3.06
2018-03-30T03:36:40.661Z,2.99
2018-03-30T03:39:08.925Z,2.90
2018-03-30T03:41:37.295Z,2.83
2018-03-30T03:44:05.672Z,2.79
2018-03-30T03:46:34.033Z,2.72
2018-03-30T03:49:04.033Z,2.67
2018-03-30T03:51:32.373Z,2.71
2018-03-30T03:54:00.745Z,2.76
2018-03-30T03:56:29.957Z,2.76
2018-03-30T03:58:58.310Z,2.75
2018-03-30T04:01:26.679Z,2.73
2018-03-30T04:03:55.029Z,2.69
2018-03-30T04:06:23.490Z,2.70
2018-03-30T04:08:51.767Z,2.71
2018-03-30T04:11:20.045Z,2.73
2018-03-30T04:13:49.147Z,2.72
2018-03-30T04:16:17.446Z,2.72
2018-03-30T04:18:45.821Z,2.70
2018-03-30T04:21:14.098Z,2.69
2018-03-30T04:23:42.375Z,2.68
2018-03-30T04:26:11.423Z,2.68
2018-03-30T04:28:39.729Z,2.64
2018-03-30T04:31:08.842Z,2.66
2018-03-30T04:33:38.845Z,2.67
2018-03-30T04:36:07.230Z,2.71
2018-03-30T04:38:35.504Z,2.74
2018-03-30T04:41:06.076Z,2.75
2018-03-30T04:43:39.563Z,2.73
2018-03-30T04:46:07.950Z,2.71
2018-03-30T04:48:37.141Z,2.73
2018-03-30T04:51:05.541Z,2.73
2018-03-30T04:53:34.629Z,2.73
2018-03-30T04:56:04.705Z,2.74
2018-03-30T04:58:35.023Z,2.78
2018-03-30T05:01:04.195Z,2.81
2018-03-30T05:03:32.557Z,2.81
2018-03-30T05:06:00.958Z,2.81
2018-03-30T05:08:30.875Z,2.84
2018-03-30T05:10:59.239Z,2.82
2018-03-30T05:13:29.229Z,2.81
2018-03-30T05:15:57.644Z,2.82
2018-03-30T05:18:26.041Z,2.85
2018-03-30T05:20:54.382Z,2.84
2018-03-30T05:23:23.597Z,2.83
2018-03-30T05:25:53.699Z,2.86
2018-03-30T05:28:23.685Z,2.90
2018-03-30T05:30:52.082Z,2.89
2018-03-30T05:33:22.109Z,2.94
2018-03-30T05:35:50.498Z,2.99
2018-03-30T05:38:18.839Z,3.03
2018-03-30T05:40:50.352Z,3.06
2018-03-30T05:43:19.449Z,3.08
2018-03-30T05:45:47.736Z,3.09
2018-03-30T05:48:17.823Z,3.09
2018-03-30T05:50:46.259Z,3.11
2018-03-30T05:53:14.706Z,3.16
2018-03-30T05:55:43.299Z,3.19
2018-03-30T05:58:11.630Z,3.20
2018-03-30T06:00:41.011Z,3.21
2018-03-30T06:03:09.293Z,3.23
2018-03-30T06:05:39.746Z,3.20
2018-03-30T06:08:10.553Z,3.20
2018-03-30T06:10:38.964Z,3.24
2018-03-30T06:13:09.099Z,3.28
2018-03-30T06:15:39.041Z,3.29
2018-03-30T06:18:09.171Z,3.30
2018-03-30T06:20:37.582Z,3.29
2018-03-30T06:23:06.091Z,3.34
2018-03-30T06:25:36.088Z,3.39
2018-03-30T06:28:07.401Z,3.42
2018-03-30T06:30:37.551Z,3.52
2018-03-30T06:33:07.923Z,3.59
2018-03-30T06:35:38.480Z,3.64
2018-03-30T06:38:08.643Z,3.70
2018-03-30T06:40:37.239Z,3.77
2018-03-30T06:43:05.585Z,3.79
2018-03-30T06:45:33.987Z,3.84
2018-03-30T06:48:04.929Z,3.88
2018-03-30T06:50:36.030Z,3.88
2018-03-30T06:53:06.105Z,3.93
2018-03-30T06:55:34.552Z,3.99
2018-03-30T06:58:02.869Z,4.09
2018-03-30T07:00:31.293Z,4.20
2018-03-30T07:03:01.643Z,4.28
2018-03-30T07:05:29.999Z,4.34
2018-03-30T07:08:00.385Z,4.39
2018-03-30T07:10:31.089Z,4.40
2018-03-30T07:12:59.482Z,4.38
2018-03-30T07:15:27.831Z,4.37
2018-03-30T07:17:56.199Z,4.38
2018-03-30T07:20:26.343Z,4.41
2018-03-30T07:22:56.461Z,4.43
2018-03-30T07:25:25.700Z,4.44
2018-03-30T07:27:54.192Z,4.48
2018-03-30T07:30:22.564Z,4.53
2018-03-30T07:32:51.007Z,4.57
2018-03-30T07:35:19.385Z,4.69
2018-03-30T07:37:47.770Z,4.77
2018-03-30T07:40:16.156Z,4.82
2018-03-30T07:42:44.709Z,4.88
2018-03-30T07:45:13.057Z,4.98
2018-03-30T07:47:41.445Z,5.13
2018-03-30T07:50:09.781Z,5.27
2018-03-30T07:52:40.834Z,5.43
2018-03-30T07:55:09.228Z,5.46
2018-03-30T07:57:41.529Z,5.48
2018-03-30T08:00:09.805Z,5.57
2018-03-30T08:02:38.232Z,5.81
2018-03-30T08:05:09.634Z,6.01
2018-03-30T08:07:38.129Z,6.14
2018-03-30T08:10:06.604Z,6.21
2018-03-30T08:12:38.452Z,6.35
2018-03-30T08:15:06.833Z,6.41
2018-03-30T08:17:36.452Z,6.52
2018-03-30T08:20:04.894Z,6.62
2018-03-30T08:22:33.339Z,6.71
2018-03-30T08:25:03.588Z,6.83
2018-03-30T08:27:34.333Z,6.89
2018-03-30T08:30:02.697Z,7.03
2018-03-30T08:32:31.782Z,7.11
2018-03-30T08:35:00.142Z,7.26
2018-03-30T08:37:28.637Z,7.42
2018-03-30T08:39:56.976Z,7.63
2018-03-30T08:42:28.021Z,7.81
2018-03-30T08:44:56.431Z,7.99
2018-03-30T08:47:24.783Z,8.13
2018-03-30T08:49:53.104Z,8.27
2018-03-30T08:52:21.424Z,8.36
2018-03-30T08:54:49.831Z,8.52
2018-03-30T08:57:18.227Z,8.55
2018-03-30T08:59:46.592Z,8.53
2018-03-30T09:02:17.581Z,8.55
2018-03-30T09:04:46.175Z,8.58
2018-03-30T09:07:15.257Z,8.54
2018-03-30T09:09:49.444Z,8.53
2018-03-30T09:12:20.885Z,8.54
2018-03-30T09:14:51.229Z,8.62
2018-03-30T09:17:23.227Z,8.77
2018-03-30T09:19:53.270Z,8.89
2018-03-30T09:22:21.673Z,9.05
2018-03-30T09:24:50.134Z,9.24
2018-03-30T09:27:18.603Z,9.39
2018-03-30T09:29:55.192Z,9.60
2018-03-30T09:32:25.357Z,9.67
2018-03-30T09:34:56.173Z,9.72
2018-03-30T09:37:24.518Z,9.84
2018-03-30T09:39:55.813Z,9.90
2018-03-30T09:42:25.270Z,9.96
2018-03-30T09:44:53.630Z,10.00
2018-03-30T09:47:23.075Z,10.09
2018-03-30T09:49:51.449Z,10.17
2018-03-30T09:52:19.852Z,10.07
2018-03-30T09:54:49.832Z,10.02
2018-03-30T09:57:18.220Z,10.11
2018-03-30T09:59:48.307Z,10.33
2018-03-30T10:02:16.999Z,10.46
2018-03-30T10:04:46.074Z,10.65
2018-03-30T10:07:14.372Z,10.70
2018-03-30T10:09:42.715Z,10.54
2018-03-30T10:12:11.785Z,10.47
2018-03-30T10:14:43.241Z,10.38
2018-03-30T10:17:11.584Z,10.46
2018-03-30T10:19:41.274Z,10.52
2018-03-30T10:22:09.740Z,10.55
2018-03-30T10:24:38.179Z,10.55
2018-03-30T10:27:06.520Z,10.43
2018-03-30T10:29:34.868Z,10.29
2018-03-30T10:32:03.578Z,10.29
2018-03-30T10:34:31.939Z,10.43
2018-03-30T10:37:00.433Z,10.45
2018-03-30T10:39:29.747Z,10.38
2018-03-30T10:42:00.210Z,10.35
2018-03-30T10:44:29.534Z,10.35
2018-03-30T10:46:58.007Z,10.45
2018-03-30T10:49:26.392Z,10.55
2018-03-30T10:51:54.699Z,10.58
2018-03-30T10:54:23.002Z,10.54
2018-03-30T10:56:54.426Z,10.51
2018-03-30T10:59:22.731Z,10.52
2018-03-30T11:01:53.903Z,10.64
2018-03-30T11:04:22.425Z,10.84
2018-03-30T11:06:50.701Z,10.98
2018-03-30T11:09:19.042Z,11.05
2018-03-30T11:11:47.395Z,11.00
2018-03-30T11:14:17.404Z,11.00
2018-03-30T11:16:45.739Z,11.05
2018-03-30T11:19:14.096Z,11.13
2018-03-30T11:21:42.434Z,11.17
2018-03-30T11:24:10.754Z,11.38
2018-03-30T11:26:39.120Z,11.59
2018-03-30T11:29:07.405Z,11.69
2018-03-30T11:31:35.944Z,11.75
2018-03-30T11:34:04.379Z,11.75
2018-03-30T11:36:35.472Z,11.75
2018-03-30T11:39:03.912Z,11.67
2018-03-30T11:41:33.051Z,11.70
2018-03-30T11:44:01.419Z,11.76
2018-03-30T11:46:29.782Z,11.89
2018-03-30T11:49:00.815Z,12.03
2018-03-30T11:51:29.156Z,12.14
2018-03-30T11:53:57.547Z,12.16
2018-03-30T11:56:27.625Z,12.23
2018-03-30T11:58:56.064Z,12.21
2018-03-30T12:01:24.373Z,12.24
2018-03-30T12:03:52.688Z,12.33
2018-03-30T12:06:22.187Z,12.37
2018-03-30T12:08:50.531Z,12.47
2018-03-30T12:11:19.623Z,12.58
2018-03-30T12:13:47.970Z,12.70
2018-03-30T12:16:16.294Z,12.78
2018-03-30T12:18:45.361Z,12.82
2018-03-30T12:21:13.795Z,12.88
2018-03-30T12:23:42.961Z,13.01
2018-03-30T12:26:11.293Z,13.21
2018-03-30T12:28:39.779Z,13.45
2018-03-30T12:31:08.557Z,13.56
2018-03-30T12:33:36.897Z,13.69
2018-03-30T12:36:05.217Z,13.78
2018-03-30T12:38:33.570Z,13.88
2018-03-30T12:41:01.988Z,13.97
2018-03-30T12:43:30.269Z,13.89
2018-03-30T12:45:58.711Z,13.85
2018-03-30T12:48:27.707Z,13.95
2018-03-30T12:50:57.782Z,13.98
2018-03-30T12:53:26.474Z,14.10
2018-03-30T12:55:56.122Z,14.10
2018-03-30T12:58:24.654Z,14.07
2018-03-30T13:00:53.282Z,13.99
2018-03-30T13:03:21.641Z,14.16
2018-03-30T13:05:52.025Z,14.34
2018-03-30T13:08:23.474Z,14.55
2018-03-30T13:10:51.832Z,14.62
2018-03-30T13:13:20.166Z,14.68
2018-03-30T13:15:48.506Z,14.62
2018-03-30T13:18:17.728Z,14.43
2018-03-30T13:20:46.020Z,14.36
2018-03-30T13:23:14.359Z,14.48
2018-03-30T13:25:42.837Z,14.35
2018-03-30T13:28:11.196Z,14.20
2018-03-30T13:30:44.044Z,14.28
2018-03-30T13:33:12.421Z,14.42
2018-03-30T13:35:40.827Z,14.46
2018-03-30T13:38:09.143Z,14.44
2018-03-30T13:40:37.469Z,14.42
2018-03-30T13:43:06.178Z,14.47
2018-03-30T13:45:35.278Z,14.42
2018-03-30T13:48:03.788Z,14.21
2018-03-30T13:50:34.051Z,14.22
2018-03-30T13:53:13.715Z,14.29
2018-03-30T13:55:42.048Z,14.03
2018-03-30T13:58:13.358Z,14.04
2018-03-30T14:00:43.110Z,14.12
2018-03-30T14:03:18.198Z,14.10
2018-03-30T14:05:52.990Z,14.00
2018-03-30T14:08:27.301Z,14.04
2018-03-30T14:11:05.752Z,14.21
2018-03-30T14:13:34.863Z,14.22
2018-03-30T14:16:08.586Z,14.35
2018-03-30T14:18:45.509Z,14.37
2018-03-30T14:21:18.455Z,14.48
2018-03-30T14:23:47.656Z,14.50
2018-03-30T14:29:19.466Z,14.59
2018-03-30T14:31:50.890Z,14.61
2018-03-30T14:34:21.542Z,14.85
2018-03-30T14:36:59.967Z,15.22
2018-03-30T14:39:32.754Z,15.26
2018-03-30T14:42:01.094Z,15.29
2018-03-30T14:44:44.503Z,15.58
2018-03-30T14:47:28.402Z,15.88
2018-03-30T14:50:03.707Z,16.20
2018-03-30T15:06:36.796Z,15.67
2018-03-30T15:09:11.820Z,15.58
2018-03-30T15:25:29.789Z,15.78
2018-03-30T15:27:59.580Z,15.85
2018-03-30T15:30:37.621Z,15.96
2018-03-30T15:33:09.742Z,16.15
2018-03-30T15:36:02.133Z,16.01
2018-03-30T15:38:53.837Z,16.21
2018-03-30T15:41:46.271Z,15.74
2018-03-30T15:44:39.063Z,15.62
2018-03-30T15:47:31.492Z,15.28
2018-03-30T15:50:22.763Z,14.82
2018-03-30T15:53:14.030Z,14.64
2018-03-30T15:56:06.557Z,14.38
2018-03-30T15:58:58.291Z,14.22
2018-03-30T16:01:48.775Z,14.12
2018-03-30T16:04:40.012Z,14.01
2018-03-30T16:07:31.716Z,13.96
2018-03-30T16:10:32.191Z,13.88
2018-03-30T16:13:24.511Z,13.84
2018-03-30T16:16:15.184Z,13.79
2018-03-30T16:19:08.460Z,13.71
2018-03-30T16:21:54.686Z,13.67
2018-03-30T16:24:42.076Z,13.65
2018-03-30T16:27:28.269Z,13.58
2018-03-30T16:30:14.453Z,13.51
2018-03-30T16:33:00.585Z,13.47
2018-03-30T16:35:46.363Z,13.43
2018-03-30T16:38:32.562Z,13.39
2018-03-30T16:41:19.044Z,13.36
2018-03-30T16:44:05.211Z,13.31
2018-03-30T16:46:51.475Z,13.22
2018-03-30T16:49:37.680Z,13.16
2018-03-30T16:52:23.846Z,13.11
2018-03-30T16:55:10.061Z,13.06
2018-03-30T16:57:56.271Z,13.03
2018-03-30T17:00:43.516Z,12.96
2018-03-30T17:03:29.305Z,12.91
2018-03-30T17:06:15.508Z,12.83
2018-03-30T17:09:01.679Z,12.80
2018-03-30T17:11:47.944Z,12.69
2018-03-30T17:14:33.705Z,12.62
2018-03-30T17:17:19.859Z,12.54
2018-03-30T17:20:06.039Z,12.50
2018-03-30T17:22:52.217Z,12.41
2018-03-30T17:25:38.465Z,12.36
2018-03-30T17:28:24.613Z,12.28
2018-03-30T17:31:10.870Z,12.23
2018-03-30T17:33:57.064Z,12.16
2018-03-30T17:36:43.276Z,12.10
2018-03-30T17:39:29.398Z,12.04
2018-03-30T17:42:15.580Z,11.99
2018-03-30T17:45:01.733Z,11.94
2018-03-30T17:47:47.978Z,11.88
2018-03-30T17:50:33.908Z,11.84
2018-03-30T17:53:20.187Z,11.77
2018-03-30T17:56:06.367Z,11.68
2018-03-30T17:58:52.714Z,11.60
2018-03-30T18:01:39.925Z,11.55
2018-03-30T18:04:28.750Z,11.54
2018-03-30T18:07:14.948Z,11.49
2018-03-30T18:10:01.180Z,11.46
2018-03-30T18:12:47.349Z,11.45
2018-03-30T18:15:34.245Z,11.41
2018-03-30T18:18:20.414Z,11.35
2018-03-30T18:21:06.743Z,11.32
2018-03-30T18:23:52.639Z,11.27
2018-03-30T18:26:38.874Z,11.25
2018-03-30T18:29:25.005Z,11.21
2018-03-30T18:32:12.194Z,11.16
2018-03-30T18:34:58.022Z,11.14
2018-03-30T18:37:44.015Z,11.11
2018-03-30T18:40:30.306Z,11.07
2018-03-30T18:43:16.189Z,11.07
2018-03-30T18:46:02.311Z,11.05
2018-03-30T18:48:48.483Z,11.06
2018-03-30T18:51:34.186Z,11.07
2018-03-30T18:54:20.390Z,11.12
2018-03-30T18:57:06.867Z,11.11
2018-03-30T18:59:53.094Z,11.07
2018-03-30T19:02:38.811Z,11.05
2018-03-30T19:05:24.615Z,10.99
2018-03-30T19:08:10.885Z,10.94
2018-03-30T19:10:57.206Z,10.89
2018-03-30T19:13:42.962Z,10.86
2018-03-30T19:16:30.779Z,10.84
2018-03-30T19:19:19.444Z,10.84
2018-03-30T19:22:06.127Z,10.83
2018-03-30T19:24:52.398Z,10.80
2018-03-30T19:27:38.644Z,10.83
2018-03-30T19:30:24.848Z,10.83
2018-03-30T19:33:11.185Z,10.79
2018-03-30T19:35:57.917Z,10.74
2018-03-30T19:38:45.714Z,10.72
2018-03-30T19:41:31.960Z,10.68
2018-03-30T19:44:18.199Z,10.65
2018-03-30T19:47:04.949Z,10.63
2018-03-30T19:49:51.333Z,10.61
2018-03-30T19:52:37.314Z,10.62
2018-03-30T19:55:23.357Z,10.64
2018-03-30T19:58:09.683Z,10.63
2018-03-30T20:00:58.180Z,10.64
2018-03-30T20:03:44.512Z,10.60
2018-03-30T20:06:30.372Z,10.62
2018-03-30T20:09:16.342Z,10.63
2018-03-30T20:12:02.622Z,10.62
2018-03-30T20:14:48.920Z,10.59
2018-03-30T20:17:35.306Z,10.56
2018-03-30T20:20:21.158Z,10.52
2018-03-30T20:23:08.541Z,10.51
2018-03-30T20:25:55.006Z,10.49
2018-03-30T20:28:41.201Z,10.49
2018-03-30T20:31:27.400Z,10.46
2018-03-30T20:34:13.689Z,10.44
2018-03-30T20:36:59.490Z,10.42
2018-03-30T20:39:45.829Z,10.43
2018-03-30T20:42:32.057Z,10.41
2018-03-30T20:45:18.485Z,10.41
2018-03-30T20:48:04.433Z,10.40
2018-03-30T20:50:50.821Z,10.38
2018-03-30T20:53:36.852Z,10.35
2018-03-30T20:56:23.184Z,10.30
2018-03-30T20:59:09.224Z,10.24
2018-03-30T21:01:55.443Z,10.19
2018-03-30T21:04:41.774Z,10.12
2018-03-30T21:07:28.406Z,10.08
2018-03-30T21:10:14.656Z,10.02
2018-03-30T21:13:00.865Z,9.96
2018-03-30T21:15:47.114Z,9.91
2018-03-30T21:18:32.894Z,9.85
2018-03-30T21:21:19.165Z,9.76
2018-03-30T21:24:05.448Z,9.67
2018-03-30T21:26:51.125Z,9.57
2018-03-30T21:29:37.475Z,9.45
2018-03-30T21:32:23.304Z,9.39
2018-03-30T21:35:10.557Z,9.32
2018-03-30T21:37:57.456Z,9.25
2018-03-30T21:40:43.716Z,9.17
2018-03-30T21:43:29.943Z,9.17
2018-03-30T21:46:16.212Z,9.15
2018-03-30T21:49:02.345Z,9.11
2018-03-30T21:51:48.401Z,9.07
2018-03-30T21:54:35.723Z,9.06
2018-03-30T21:57:21.988Z,9.09
2018-03-30T22:00:07.950Z,9.14
2018-03-30T22:02:54.131Z,9.18
2018-03-30T22:05:40.156Z,9.14
2018-03-30T22:08:26.560Z,9.10
2018-03-30T22:11:12.395Z,9.05
2018-03-30T22:13:58.718Z,8.99
2018-03-30T22:16:44.867Z,8.95
2018-03-30T22:19:31.168Z,8.89
2018-03-30T22:22:16.924Z,8.80
2018-03-30T22:25:03.101Z,8.75
2018-03-30T22:27:49.278Z,8.70
2018-03-30T22:30:35.488Z,8.65
2018-03-30T22:33:21.630Z,8.62
2018-03-30T22:36:07.905Z,8.57
2018-03-30T22:38:54.103Z,8.55
2018-03-30T22:41:39.932Z,8.53
2018-03-30T22:44:25.672Z,8.51
2018-03-30T22:47:11.919Z,8.48
2018-03-30T22:49:59.341Z,8.45
2018-03-30T22:52:45.538Z,8.43
2018-03-30T22:55:31.766Z,8.43
2018-03-30T22:58:18.138Z,8.43
2018-03-30T23:01:04.464Z,8.45
2018-03-30T23:03:51.212Z,8.45
2018-03-30T23:06:38.461Z,8.43
2018-03-30T23:09:24.754Z,8.45
2018-03-30T23:12:11.426Z,8.49
2018-03-30T23:14:57.231Z,8.54
2018-03-30T23:17:44.398Z,8.57
2018-03-30T23:20:30.154Z,8.64
2018-03-30T23:23:16.402Z,8.67
2018-03-30T23:26:02.359Z,8.70
2018-03-30T23:28:48.053Z,8.71
2018-03-30T23:31:34.324Z,8.73
2018-03-30T23:34:20.486Z,8.74
2018-03-30T23:37:06.728Z,8.77
2018-03-30T23:39:52.914Z,8.79
2018-03-30T23:42:39.223Z,8.82
2018-03-30T23:45:25.452Z,8.82
2018-03-30T23:48:11.729Z,8.83
2018-03-30T23:50:57.843Z,8.83
2018-03-30T23:53:44.085Z,8.84
2018-03-30T23:56:30.258Z,8.83
2018-03-30T23:59:16.424Z,8.82
